sensor_id;sensor_type;location;lat;lon;timestamp;P1;durP1;ratioP1;P2;durP2;ratioP2
32808;SDS011;19159;48.178;16.386;2023-07-13T00:02:21;3.13;;;1.10;;
32808;SDS011;19159;48.178;16.386;2023-07-13T00:04:47;2.55;;;1.00;;
32808;SDS011;19159;48.178;16.386;2023-07-13T00:07:13;3.65;;;1.02;;
32808;SDS011;19159;48.178;16.386;2023-07-13T00:09:39;2.90;;;1.08;;
32808;SDS011;19159;48.178;16.386;2023-07-13T00:12:05;2.58;;;1.30;;
32808;SDS011;19159;48.178;16.386;2023-07-13T00:14:55;2.55;;;1.23;;
32808;SDS011;19159;48.178;16.386;2023-07-13T00:17:22;4.28;;;1.65;;
32808;SDS011;19159;48.178;16.386;2023-07-13T00:19:48;8.40;;;1.83;;
32808;SDS011;19159;48.178;16.386;2023-07-13T00:22:14;3.97;;;1.30;;
32808;SDS011;19159;48.178;16.386;2023-07-13T00:24:39;2.95;;;1.25;;
32808;SDS011;19159;48.178;16.386;2023-07-13T00:27:07;3.10;;;1.70;;
32808;SDS011;19159;48.178;16.386;2023-07-13T00:29:34;3.17;;;1.58;;
32808;SDS011;19159;48.178;16.386;2023-07-13T00:31:59;3.35;;;1.65;;
32808;SDS011;19159;48.178;16.386;2023-07-13T00:34:25;3.13;;;1.40;;
32808;SDS011;19159;48.178;16.386;2023-07-13T00:36:51;6.75;;;2.50;;
32808;SDS011;19159;48.178;16.386;2023-07-13T00:39:16;4.38;;;1.30;;
32808;SDS011;19159;48.178;16.386;2023-07-13T00:41:42;2.95;;;1.42;;
32808;SDS011;19159;48.178;16.386;2023-07-13T00:44:13;2.78;;;1.20;;
32808;SDS011;19159;48.178;16.386;2023-07-13T00:46:40;1.70;;;1.40;;
32808;SDS011;19159;48.178;16.386;2023-07-13T00:49:06;2.88;;;1.25;;
32808;SDS011;19159;48.178;16.386;2023-07-13T00:51:41;1.77;;;1.10;;
32808;SDS011;19159;48.178;16.386;2023-07-13T00:54:13;2.42;;;1.05;;
32808;SDS011;19159;48.178;16.386;2023-07-13T00:56:43;2.13;;;0.80;;
32808;SDS011;19159;48.178;16.386;2023-07-13T00:59:11;1.67;;;0.80;;
32808;SDS011;19159;48.178;16.386;2023-07-13T01:01:38;1.20;;;0.80;;
32808;SDS011;19159;48.178;16.386;2023-07-13T01:04:04;1.05;;;0.70;;
32808;SDS011;19159;48.178;16.386;2023-07-13T01:06:32;2.00;;;0.80;;
32808;SDS011;19159;48.178;16.386;2023-07-13T01:09:02;1.00;;;0.80;;
32808;SDS011;19159;48.178;16.386;2023-07-13T01:11:29;1.60;;;1.27;;
32808;SDS011;19159;48.178;16.386;2023-07-13T01:13:54;1.20;;;0.90;;
32808;SDS011;19159;48.178;16.386;2023-07-13T01:16:28;1.23;;;0.68;;
32808;SDS011;19159;48.178;16.386;2023-07-13T01:18:59;1.92;;;0.73;;
32808;SDS011;19159;48.178;16.386;2023-07-13T01:21:27;2.25;;;1.00;;
32808;SDS011;19159;48.178;16.386;2023-07-13T01:23:55;2.33;;;0.90;;
32808;SDS011;19159;48.178;16.386;2023-07-13T01:26:21;1.02;;;0.70;;
32808;SDS011;19159;48.178;16.386;2023-07-13T01:28:46;1.17;;;0.90;;
32808;SDS011;19159;48.178;16.386;2023-07-13T01:31:12;1.58;;;0.70;;
32808;SDS011;19159;48.178;16.386;2023-07-13T01:33:39;1.77;;;0.80;;
32808;SDS011;19159;48.178;16.386;2023-07-13T01:36:07;1.77;;;0.73;;
32808;SDS011;19159;48.178;16.386;2023-07-13T01:38:34;1.20;;;0.75;;
32808;SDS011;19159;48.178;16.386;2023-07-13T01:41:01;1.95;;;0.82;;
32808;SDS011;19159;48.178;16.386;2023-07-13T01:43:27;1.45;;;0.85;;
32808;SDS011;19159;48.178;16.386;2023-07-13T01:45:53;1.13;;;0.70;;
32808;SDS011;19159;48.178;16.386;2023-07-13T01:48:19;2.10;;;0.80;;
32808;SDS011;19159;48.178;16.386;2023-07-13T01:50:45;1.45;;;0.82;;
32808;SDS011;19159;48.178;16.386;2023-07-13T01:53:12;0.93;;;0.70;;
32808;SDS011;19159;48.178;16.386;2023-07-13T01:55:38;2.20;;;0.80;;
32808;SDS011;19159;48.178;16.386;2023-07-13T01:58:04;1.70;;;0.90;;
32808;SDS011;19159;48.178;16.386;2023-07-13T02:00:30;2.28;;;1.45;;
32808;SDS011;19159;48.178;16.386;2023-07-13T02:02:56;0.70;;;0.60;;
32808;SDS011;19159;48.178;16.386;2023-07-13T02:05:22;2.25;;;1.00;;
32808;SDS011;19159;48.178;16.386;2023-07-13T02:07:48;2.88;;;1.20;;
32808;SDS011;19159;48.178;16.386;2023-07-13T02:10:14;2.38;;;0.98;;
32808;SDS011;19159;48.178;16.386;2023-07-13T02:12:40;2.00;;;0.80;;
32808;SDS011;19159;48.178;16.386;2023-07-13T02:15:06;3.40;;;1.13;;
32808;SDS011;19159;48.178;16.386;2023-07-13T02:17:33;1.95;;;1.10;;
32808;SDS011;19159;48.178;16.386;2023-07-13T02:19:59;1.63;;;0.98;;
32808;SDS011;19159;48.178;16.386;2023-07-13T02:22:25;1.67;;;0.95;;
32808;SDS011;19159;48.178;16.386;2023-07-13T02:24:50;3.15;;;0.90;;
32808;SDS011;19159;48.178;16.386;2023-07-13T02:27:16;1.85;;;0.93;;
32808;SDS011;19159;48.178;16.386;2023-07-13T02:29:42;1.38;;;1.00;;
32808;SDS011;19159;48.178;16.386;2023-07-13T02:32:08;1.30;;;1.00;;
32808;SDS011;19159;48.178;16.386;2023-07-13T02:34:33;1.73;;;0.85;;
32808;SDS011;19159;48.178;16.386;2023-07-13T02:36:59;2.25;;;1.20;;
32808;SDS011;19159;48.178;16.386;2023-07-13T02:39:25;4.47;;;1.02;;
32808;SDS011;19159;48.178;16.386;2023-07-13T02:41:51;2.30;;;1.00;;
32808;SDS011;19159;48.178;16.386;2023-07-13T02:44:16;1.80;;;1.05;;
32808;SDS011;19159;48.178;16.386;2023-07-13T02:46:42;1.20;;;0.73;;
32808;SDS011;19159;48.178;16.386;2023-07-13T02:49:07;2.03;;;1.20;;
32808;SDS011;19159;48.178;16.386;2023-07-13T02:51:33;2.70;;;1.00;;
32808;SDS011;19159;48.178;16.386;2023-07-13T02:53:59;1.67;;;0.98;;
32808;SDS011;19159;48.178;16.386;2023-07-13T02:56:26;3.28;;;1.48;;
32808;SDS011;19159;48.178;16.386;2023-07-13T02:58:53;2.00;;;0.98;;
32808;SDS011;19159;48.178;16.386;2023-07-13T03:01:20;1.80;;;0.90;;
32808;SDS011;19159;48.178;16.386;2023-07-13T03:03:47;1.42;;;1.00;;
32808;SDS011;19159;48.178;16.386;2023-07-13T03:06:14;2.53;;;1.20;;
32808;SDS011;19159;48.178;16.386;2023-07-13T03:08:40;6.38;;;1.02;;
32808;SDS011;19159;48.178;16.386;2023-07-13T03:11:08;1.83;;;0.98;;
32808;SDS011;19159;48.178;16.386;2023-07-13T03:13:39;2.70;;;1.05;;
32808;SDS011;19159;48.178;16.386;2023-07-13T03:16:06;2.40;;;1.33;;
32808;SDS011;19159;48.178;16.386;2023-07-13T03:18:32;2.65;;;1.00;;
32808;SDS011;19159;48.178;16.386;2023-07-13T03:20:58;1.83;;;1.08;;
32808;SDS011;19159;48.178;16.386;2023-07-13T03:23:24;2.35;;;1.30;;
32808;SDS011;19159;48.178;16.386;2023-07-13T03:25:50;2.35;;;1.23;;
32808;SDS011;19159;48.178;16.386;2023-07-13T03:28:27;2.55;;;1.08;;
32808;SDS011;19159;48.178;16.386;2023-07-13T03:31:08;2.50;;;0.90;;
32808;SDS011;19159;48.178;16.386;2023-07-13T03:33:36;1.42;;;1.00;;
32808;SDS011;19159;48.178;16.386;2023-07-13T03:36:03;1.98;;;0.88;;
32808;SDS011;19159;48.178;16.386;2023-07-13T03:38:29;3.60;;;1.33;;
32808;SDS011;19159;48.178;16.386;2023-07-13T03:40:55;1.38;;;0.98;;
32808;SDS011;19159;48.178;16.386;2023-07-13T03:43:21;1.13;;;0.95;;
32808;SDS011;19159;48.178;16.386;2023-07-13T03:45:47;3.17;;;1.00;;
32808;SDS011;19159;48.178;16.386;2023-07-13T03:48:13;2.65;;;1.00;;
32808;SDS011;19159;48.178;16.386;2023-07-13T03:50:39;3.20;;;1.15;;
32808;SDS011;19159;48.178;16.386;2023-07-13T03:53:05;2.65;;;1.50;;
32808;SDS011;19159;48.178;16.386;2023-07-13T03:55:30;3.45;;;1.35;;
32808;SDS011;19159;48.178;16.386;2023-07-13T03:58:24;2.50;;;1.17;;
32808;SDS011;19159;48.178;16.386;2023-07-13T04:00:53;1.98;;;1.23;;
32808;SDS011;19159;48.178;16.386;2023-07-13T04:03:19;2.03;;;1.35;;
32808;SDS011;19159;48.178;16.386;2023-07-13T04:05:45;2.65;;;1.50;;
32808;SDS011;19159;48.178;16.386;2023-07-13T04:08:11;2.60;;;1.45;;
32808;SDS011;19159;48.178;16.386;2023-07-13T04:10:37;3.10;;;1.08;;
32808;SDS011;19159;48.178;16.386;2023-07-13T04:13:03;2.58;;;1.48;;
32808;SDS011;19159;48.178;16.386;2023-07-13T04:15:30;3.10;;;1.50;;
32808;SDS011;19159;48.178;16.386;2023-07-13T04:17:56;2.13;;;1.10;;
32808;SDS011;19159;48.178;16.386;2023-07-13T04:20:22;4.85;;;1.60;;
32808;SDS011;19159;48.178;16.386;2023-07-13T04:22:49;2.05;;;1.20;;
32808;SDS011;19159;48.178;16.386;2023-07-13T04:25:14;3.38;;;1.23;;
32808;SDS011;19159;48.178;16.386;2023-07-13T04:27:40;4.57;;;1.80;;
32808;SDS011;19159;48.178;16.386;2023-07-13T04:30:06;2.78;;;1.38;;
32808;SDS011;19159;48.178;16.386;2023-07-13T04:32:32;2.60;;;1.23;;
32808;SDS011;19159;48.178;16.386;2023-07-13T04:34:58;3.13;;;1.65;;
32808;SDS011;19159;48.178;16.386;2023-07-13T04:37:24;2.25;;;1.23;;
32808;SDS011;19159;48.178;16.386;2023-07-13T04:39:51;2.65;;;1.20;;
32808;SDS011;19159;48.178;16.386;2023-07-13T04:42:17;1.33;;;1.02;;
32808;SDS011;19159;48.178;16.386;2023-07-13T04:44:49;2.25;;;1.10;;
32808;SDS011;19159;48.178;16.386;2023-07-13T04:47:16;2.88;;;1.20;;
32808;SDS011;19159;48.178;16.386;2023-07-13T04:49:42;2.17;;;1.10;;
32808;SDS011;19159;48.178;16.386;2023-07-13T04:52:08;1.85;;;0.90;;
32808;SDS011;19159;48.178;16.386;2023-07-13T04:54:34;3.25;;;1.50;;
32808;SDS011;19159;48.178;16.386;2023-07-13T04:57:00;3.63;;;1.58;;
32808;SDS011;19159;48.178;16.386;2023-07-13T04:59:25;3.00;;;1.30;;
32808;SDS011;19159;48.178;16.386;2023-07-13T05:01:51;2.15;;;1.10;;
32808;SDS011;19159;48.178;16.386;2023-07-13T05:04:17;2.30;;;1.20;;
32808;SDS011;19159;48.178;16.386;2023-07-13T05:06:42;3.20;;;1.42;;
32808;SDS011;19159;48.178;16.386;2023-07-13T05:09:08;1.98;;;1.10;;
32808;SDS011;19159;48.178;16.386;2023-07-13T05:11:34;2.75;;;1.30;;
32808;SDS011;19159;48.178;16.386;2023-07-13T05:13:59;2.20;;;1.02;;
32808;SDS011;19159;48.178;16.386;2023-07-13T05:16:26;2.83;;;1.20;;
32808;SDS011;19159;48.178;16.386;2023-07-13T05:18:52;2.60;;;0.82;;
32808;SDS011;19159;48.178;16.386;2023-07-13T05:21:18;2.85;;;0.88;;
32808;SDS011;19159;48.178;16.386;2023-07-13T05:23:44;1.83;;;0.60;;
32808;SDS011;19159;48.178;16.386;2023-07-13T05:26:09;2.75;;;0.98;;
32808;SDS011;19159;48.178;16.386;2023-07-13T05:28:36;2.35;;;0.70;;
32808;SDS011;19159;48.178;16.386;2023-07-13T05:31:02;2.60;;;0.90;;
32808;SDS011;19159;48.178;16.386;2023-07-13T05:33:27;2.45;;;1.00;;
32808;SDS011;19159;48.178;16.386;2023-07-13T05:35:53;2.08;;;1.00;;
32808;SDS011;19159;48.178;16.386;2023-07-13T05:38:19;2.35;;;1.00;;
32808;SDS011;19159;48.178;16.386;2023-07-13T05:40:45;2.92;;;0.98;;
32808;SDS011;19159;48.178;16.386;2023-07-13T05:43:11;3.35;;;1.42;;
32808;SDS011;19159;48.178;16.386;2023-07-13T05:45:37;2.25;;;0.80;;
32808;SDS011;19159;48.178;16.386;2023-07-13T05:48:03;2.72;;;1.23;;
32808;SDS011;19159;48.178;16.386;2023-07-13T05:50:29;2.40;;;1.33;;
32808;SDS011;19159;48.178;16.386;2023-07-13T05:52:54;3.35;;;1.35;;
32808;SDS011;19159;48.178;16.386;2023-07-13T05:55:21;4.25;;;1.20;;
32808;SDS011;19159;48.178;16.386;2023-07-13T05:57:47;4.30;;;1.40;;
32808;SDS011;19159;48.178;16.386;2023-07-13T06:00:12;7.00;;;2.00;;
32808;SDS011;19159;48.178;16.386;2023-07-13T06:02:38;5.85;;;1.48;;
32808;SDS011;19159;48.178;16.386;2023-07-13T06:05:04;2.65;;;1.10;;
32808;SDS011;19159;48.178;16.386;2023-07-13T06:07:30;5.22;;;2.08;;
32808;SDS011;19159;48.178;16.386;2023-07-13T06:09:56;2.20;;;1.45;;
32808;SDS011;19159;48.178;16.386;2023-07-13T06:12:21;2.72;;;1.30;;
32808;SDS011;19159;48.178;16.386;2023-07-13T06:14:47;1.60;;;0.93;;
32808;SDS011;19159;48.178;16.386;2023-07-13T06:17:13;2.28;;;1.40;;
32808;SDS011;19159;48.178;16.386;2023-07-13T06:19:38;4.63;;;1.20;;
32808;SDS011;19159;48.178;16.386;2023-07-13T06:22:04;2.42;;;1.08;;
32808;SDS011;19159;48.178;16.386;2023-07-13T06:24:30;2.40;;;1.00;;
32808;SDS011;19159;48.178;16.386;2023-07-13T06:26:56;2.80;;;1.00;;
32808;SDS011;19159;48.178;16.386;2023-07-13T06:29:21;1.63;;;1.00;;
32808;SDS011;19159;48.178;16.386;2023-07-13T06:31:47;4.22;;;1.10;;
32808;SDS011;19159;48.178;16.386;2023-07-13T06:34:12;3.58;;;1.38;;
32808;SDS011;19159;48.178;16.386;2023-07-13T06:36:38;1.25;;;0.80;;
32808;SDS011;19159;48.178;16.386;2023-07-13T06:39:04;1.23;;;0.90;;
32808;SDS011;19159;48.178;16.386;2023-07-13T06:41:31;1.63;;;0.90;;
32808;SDS011;19159;48.178;16.386;2023-07-13T06:43:58;1.20;;;0.88;;
32808;SDS011;19159;48.178;16.386;2023-07-13T06:46:24;1.92;;;1.10;;
32808;SDS011;19159;48.178;16.386;2023-07-13T06:48:49;3.47;;;0.93;;
32808;SDS011;19159;48.178;16.386;2023-07-13T06:51:15;2.42;;;0.80;;
32808;SDS011;19159;48.178;16.386;2023-07-13T06:53:41;3.20;;;1.10;;
32808;SDS011;19159;48.178;16.386;2023-07-13T06:56:08;3.75;;;1.00;;
32808;SDS011;19159;48.178;16.386;2023-07-13T06:58:35;4.00;;;0.90;;
32808;SDS011;19159;48.178;16.386;2023-07-13T07:01:01;1.45;;;0.90;;
32808;SDS011;19159;48.178;16.386;2023-07-13T07:03:27;5.15;;;1.30;;
32808;SDS011;19159;48.178;16.386;2023-07-13T07:05:53;4.38;;;0.95;;
32808;SDS011;19159;48.178;16.386;2023-07-13T07:08:18;1.45;;;0.70;;
32808;SDS011;19159;48.178;16.386;2023-07-13T07:10:44;3.97;;;0.82;;
32808;SDS011;19159;48.178;16.386;2023-07-13T07:13:10;1.80;;;0.85;;
32808;SDS011;19159;48.178;16.386;2023-07-13T07:15:36;1.60;;;0.93;;
32808;SDS011;19159;48.178;16.386;2023-07-13T07:18:02;4.43;;;0.98;;
32808;SDS011;19159;48.178;16.386;2023-07-13T07:20:27;2.75;;;0.73;;
32808;SDS011;19159;48.178;16.386;2023-07-13T07:22:55;0.98;;;0.70;;
32808;SDS011;19159;48.178;16.386;2023-07-13T07:25:21;2.88;;;0.85;;
32808;SDS011;19159;48.178;16.386;2023-07-13T07:27:46;1.67;;;0.82;;
32808;SDS011;19159;48.178;16.386;2023-07-13T07:30:12;3.53;;;1.13;;
32808;SDS011;19159;48.178;16.386;2023-07-13T07:32:38;1.13;;;0.63;;
32808;SDS011;19159;48.178;16.386;2023-07-13T07:35:04;1.95;;;0.90;;
32808;SDS011;19159;48.178;16.386;2023-07-13T07:37:30;1.27;;;0.80;;
32808;SDS011;19159;48.178;16.386;2023-07-13T07:39:55;1.25;;;0.80;;
32808;SDS011;19159;48.178;16.386;2023-07-13T07:42:21;2.47;;;1.05;;
32808;SDS011;19159;48.178;16.386;2023-07-13T07:44:46;1.83;;;0.80;;
32808;SDS011;19159;48.178;16.386;2023-07-13T07:47:12;1.85;;;0.90;;
32808;SDS011;19159;48.178;16.386;2023-07-13T07:49:37;2.55;;;0.75;;
32808;SDS011;19159;48.178;16.386;2023-07-13T07:52:03;3.88;;;0.90;;
32808;SDS011;19159;48.178;16.386;2023-07-13T07:54:29;3.20;;;0.93;;
32808;SDS011;19159;48.178;16.386;2023-07-13T07:56:55;2.35;;;1.00;;
32808;SDS011;19159;48.178;16.386;2023-07-13T07:59:20;4.38;;;1.17;;
32808;SDS011;19159;48.178;16.386;2023-07-13T08:01:46;1.30;;;0.80;;
32808;SDS011;19159;48.178;16.386;2023-07-13T08:04:15;3.08;;;0.68;;
32808;SDS011;19159;48.178;16.386;2023-07-13T08:06:41;1.00;;;0.60;;
32808;SDS011;19159;48.178;16.386;2023-07-13T08:09:06;1.67;;;0.77;;
32808;SDS011;19159;48.178;16.386;2023-07-13T08:11:33;3.65;;;0.98;;
32808;SDS011;19159;48.178;16.386;2023-07-13T08:13:58;2.95;;;1.25;;
32808;SDS011;19159;48.178;16.386;2023-07-13T08:16:24;1.35;;;0.70;;
32808;SDS011;19159;48.178;16.386;2023-07-13T08:18:51;3.55;;;0.80;;
32808;SDS011;19159;48.178;16.386;2023-07-13T08:21:16;2.10;;;0.77;;
32808;SDS011;19159;48.178;16.386;2023-07-13T08:23:44;2.55;;;0.63;;
32808;SDS011;19159;48.178;16.386;2023-07-13T08:26:10;2.65;;;0.82;;
32808;SDS011;19159;48.178;16.386;2023-07-13T08:28:36;1.33;;;0.82;;
32808;SDS011;19159;48.178;16.386;2023-07-13T08:31:02;2.05;;;0.77;;
32808;SDS011;19159;48.178;16.386;2023-07-13T08:33:29;1.35;;;1.02;;
32808;SDS011;19159;48.178;16.386;2023-07-13T08:35:55;2.08;;;1.08;;
32808;SDS011;19159;48.178;16.386;2023-07-13T08:38:21;1.50;;;0.88;;
32808;SDS011;19159;48.178;16.386;2023-07-13T08:40:54;1.58;;;1.00;;
32808;SDS011;19159;48.178;16.386;2023-07-13T08:43:34;3.33;;;0.90;;
32808;SDS011;19159;48.178;16.386;2023-07-13T08:46:09;1.92;;;0.80;;
32808;SDS011;19159;48.178;16.386;2023-07-13T08:48:44;3.13;;;1.00;;
32808;SDS011;19159;48.178;16.386;2023-07-13T08:54:05;2.10;;;0.98;;
32808;SDS011;19159;48.178;16.386;2023-07-13T08:56:52;3.35;;;1.00;;
32808;SDS011;19159;48.178;16.386;2023-07-13T08:59:24;3.78;;;1.00;;
32808;SDS011;19159;48.178;16.386;2023-07-13T09:05:18;3.03;;;0.93;;
32808;SDS011;19159;48.178;16.386;2023-07-13T09:10:46;1.85;;;1.33;;
32808;SDS011;19159;48.178;16.386;2023-07-13T09:16:04;2.85;;;1.35;;
32808;SDS011;19159;48.178;16.386;2023-07-13T09:18:37;4.35;;;1.40;;
32808;SDS011;19159;48.178;16.386;2023-07-13T09:23:34;1.73;;;1.10;;
32808;SDS011;19159;48.178;16.386;2023-07-13T09:26:05;2.42;;;1.50;;
32808;SDS011;19159;48.178;16.386;2023-07-13T09:28:48;4.38;;;1.92;;
32808;SDS011;19159;48.178;16.386;2023-07-13T09:33:53;2.60;;;1.15;;
32808;SDS011;19159;48.178;16.386;2023-07-13T09:36:20;3.03;;;1.20;;
32808;SDS011;19159;48.178;16.386;2023-07-13T09:38:49;5.70;;;1.52;;
32808;SDS011;19159;48.178;16.386;2023-07-13T09:41:50;2.70;;;1.65;;
32808;SDS011;19159;48.178;16.386;2023-07-13T09:47:26;3.38;;;1.67;;
32808;SDS011;19159;48.178;16.386;2023-07-13T09:50:00;3.55;;;1.65;;
32808;SDS011;19159;48.178;16.386;2023-07-13T09:55:52;3.38;;;1.73;;
32808;SDS011;19159;48.178;16.386;2023-07-13T09:58:04;2.83;;;1.90;;
32808;SDS011;19159;48.178;16.386;2023-07-13T10:00:36;3.78;;;1.73;;
32808;SDS011;19159;48.178;16.386;2023-07-13T10:03:04;4.40;;;1.63;;
32808;SDS011;19159;48.178;16.386;2023-07-13T10:05:40;3.97;;;1.98;;
32808;SDS011;19159;48.178;16.386;2023-07-13T10:08:15;2.40;;;1.70;;
32808;SDS011;19159;48.178;16.386;2023-07-13T10:10:59;2.80;;;1.80;;
32808;SDS011;19159;48.178;16.386;2023-07-13T10:13:35;5.60;;;1.88;;
32808;SDS011;19159;48.178;16.386;2023-07-13T10:16:04;4.72;;;1.80;;
32808;SDS011;19159;48.178;16.386;2023-07-13T10:18:38;3.97;;;1.92;;
32808;SDS011;19159;48.178;16.386;2023-07-13T10:21:17;4.10;;;1.95;;
32808;SDS011;19159;48.178;16.386;2023-07-13T10:23:47;2.63;;;1.73;;
32808;SDS011;19159;48.178;16.386;2023-07-13T10:26:17;8.13;;;1.90;;
32808;SDS011;19159;48.178;16.386;2023-07-13T10:28:49;2.88;;;2.05;;
32808;SDS011;19159;48.178;16.386;2023-07-13T10:31:20;5.95;;;1.80;;
32808;SDS011;19159;48.178;16.386;2023-07-13T10:33:46;1.85;;;1.65;;
32808;SDS011;19159;48.178;16.386;2023-07-13T10:36:31;3.45;;;1.95;;
32808;SDS011;19159;48.178;16.386;2023-07-13T10:39:00;2.92;;;1.80;;
32808;SDS011;19159;48.178;16.386;2023-07-13T10:41:29;2.95;;;1.90;;
32808;SDS011;19159;48.178;16.386;2023-07-13T10:43:58;3.30;;;2.00;;
32808;SDS011;19159;48.178;16.386;2023-07-13T10:46:26;3.40;;;1.80;;
32808;SDS011;19159;48.178;16.386;2023-07-13T10:48:55;4.25;;;1.70;;
32808;SDS011;19159;48.178;16.386;2023-07-13T10:51:33;5.10;;;2.00;;
32808;SDS011;19159;48.178;16.386;2023-07-13T10:56:43;3.55;;;1.95;;
32808;SDS011;19159;48.178;16.386;2023-07-13T11:01:41;2.88;;;1.98;;
32808;SDS011;19159;48.178;16.386;2023-07-13T11:04:21;3.97;;;1.90;;
32808;SDS011;19159;48.178;16.386;2023-07-13T11:06:50;4.40;;;1.88;;
32808;SDS011;19159;48.178;16.386;2023-07-13T11:12:03;2.70;;;1.88;;
32808;SDS011;19159;48.178;16.386;2023-07-13T11:18:03;3.28;;;1.85;;
32808;SDS011;19159;48.178;16.386;2023-07-13T11:25:32;4.68;;;1.92;;
32808;SDS011;19159;48.178;16.386;2023-07-13T11:30:38;3.78;;;1.73;;
32808;SDS011;19159;48.178;16.386;2023-07-13T11:33:17;3.60;;;1.95;;
32808;SDS011;19159;48.178;16.386;2023-07-13T11:38:44;3.45;;;1.30;;
32808;SDS011;19159;48.178;16.386;2023-07-13T11:41:17;5.10;;;2.17;;
32808;SDS011;19159;48.178;16.386;2023-07-13T11:43:50;2.20;;;1.50;;
32808;SDS011;19159;48.178;16.386;2023-07-13T11:46:23;1.40;;;1.30;;
32808;SDS011;19159;48.178;16.386;2023-07-13T11:48:51;3.42;;;1.58;;
32808;SDS011;19159;48.178;16.386;2023-07-13T11:51:27;2.15;;;1.40;;
32808;SDS011;19159;48.178;16.386;2023-07-13T11:53:56;4.55;;;1.40;;
32808;SDS011;19159;48.178;16.386;2023-07-13T11:56:26;2.83;;;1.30;;
32808;SDS011;19159;48.178;16.386;2023-07-13T11:58:53;2.45;;;1.55;;
32808;SDS011;19159;48.178;16.386;2023-07-13T12:01:22;1.90;;;1.40;;
32808;SDS011;19159;48.178;16.386;2023-07-13T12:03:57;3.08;;;1.42;;
32808;SDS011;19159;48.178;16.386;2023-07-13T12:06:32;4.82;;;1.50;;
32808;SDS011;19159;48.178;16.386;2023-07-13T12:09:10;5.70;;;1.55;;
32808;SDS011;19159;48.178;16.386;2023-07-13T12:11:46;3.45;;;1.88;;
32808;SDS011;19159;48.178;16.386;2023-07-13T12:14:15;4.57;;;1.40;;
32808;SDS011;19159;48.178;16.386;2023-07-13T12:16:41;3.47;;;1.60;;
32808;SDS011;19159;48.178;16.386;2023-07-13T12:19:17;4.18;;;1.70;;
32808;SDS011;19159;48.178;16.386;2023-07-13T12:21:46;3.60;;;1.73;;
32808;SDS011;19159;48.178;16.386;2023-07-13T12:24:16;2.28;;;1.30;;
32808;SDS011;19159;48.178;16.386;2023-07-13T12:26:43;2.90;;;1.42;;
32808;SDS011;19159;48.178;16.386;2023-07-13T12:29:16;2.78;;;1.55;;
32808;SDS011;19159;48.178;16.386;2023-07-13T12:31:43;3.25;;;1.60;;
32808;SDS011;19159;48.178;16.386;2023-07-13T12:36:38;1.48;;;1.33;;
32808;SDS011;19159;48.178;16.386;2023-07-13T12:39:16;1.70;;;1.33;;
32808;SDS011;19159;48.178;16.386;2023-07-13T12:41:47;2.97;;;1.40;;
32808;SDS011;19159;48.178;16.386;2023-07-13T12:44:15;3.72;;;1.63;;
32808;SDS011;19159;48.178;16.386;2023-07-13T12:49:43;2.20;;;1.48;;
32808;SDS011;19159;48.178;16.386;2023-07-13T12:52:16;4.65;;;1.30;;
32808;SDS011;19159;48.178;16.386;2023-07-13T12:55:04;3.97;;;1.40;;
32808;SDS011;19159;48.178;16.386;2023-07-13T12:57:40;4.20;;;1.58;;
32808;SDS011;19159;48.178;16.386;2023-07-13T13:00:53;4.40;;;1.60;;
32808;SDS011;19159;48.178;16.386;2023-07-13T13:06:42;4.65;;;1.70;;
32808;SDS011;19159;48.178;16.386;2023-07-13T13:08:45;3.45;;;1.60;;
32808;SDS011;19159;48.178;16.386;2023-07-13T13:11:13;3.80;;;1.52;;
32808;SDS011;19159;48.178;16.386;2023-07-13T13:13:41;3.17;;;1.88;;
32808;SDS011;19159;48.178;16.386;2023-07-13T13:16:18;6.30;;;2.00;;
32808;SDS011;19159;48.178;16.386;2023-07-13T13:18:50;2.22;;;1.67;;
32808;SDS011;19159;48.178;16.386;2023-07-13T13:21:16;3.58;;;1.48;;
32808;SDS011;19159;48.178;16.386;2023-07-13T13:23:43;3.30;;;1.70;;
32808;SDS011;19159;48.178;16.386;2023-07-13T13:26:13;3.38;;;1.35;;
32808;SDS011;19159;48.178;16.386;2023-07-13T13:28:43;2.22;;;1.40;;
32808;SDS011;19159;48.178;16.386;2023-07-13T13:31:09;3.33;;;1.80;;
32808;SDS011;19159;48.178;16.386;2023-07-13T13:33:39;2.92;;;1.50;;
32808;SDS011;19159;48.178;16.386;2023-07-13T13:36:21;3.83;;;1.33;;
32808;SDS011;19159;48.178;16.386;2023-07-13T13:38:48;3.65;;;1.40;;
32808;SDS011;19159;48.178;16.386;2023-07-13T13:41:15;5.03;;;1.83;;
32808;SDS011;19159;48.178;16.386;2023-07-13T13:43:42;3.00;;;1.83;;
32808;SDS011;19159;48.178;16.386;2023-07-13T13:46:18;2.85;;;1.50;;
32808;SDS011;19159;48.178;16.386;2023-07-13T13:48:47;3.10;;;1.58;;
32808;SDS011;19159;48.178;16.386;2023-07-13T13:51:17;2.75;;;1.67;;
32808;SDS011;19159;48.178;16.386;2023-07-13T13:53:45;2.90;;;1.45;;
32808;SDS011;19159;48.178;16.386;2023-07-13T13:56:12;2.60;;;1.38;;
32808;SDS011;19159;48.178;16.386;2023-07-13T13:58:39;3.63;;;1.30;;
32808;SDS011;19159;48.178;16.386;2023-07-13T14:01:08;2.22;;;1.38;;
32808;SDS011;19159;48.178;16.386;2023-07-13T14:03:42;3.67;;;1.40;;
32808;SDS011;19159;48.178;16.386;2023-07-13T14:06:12;2.72;;;1.50;;
32808;SDS011;19159;48.178;16.386;2023-07-13T14:08:39;3.10;;;1.73;;
32808;SDS011;19159;48.178;16.386;2023-07-13T14:11:05;2.67;;;1.48;;
32808;SDS011;19159;48.178;16.386;2023-07-13T14:13:37;2.22;;;1.52;;
32808;SDS011;19159;48.178;16.386;2023-07-13T14:16:09;2.20;;;1.50;;
32808;SDS011;19159;48.178;16.386;2023-07-13T14:18:37;2.35;;;1.20;;
32808;SDS011;19159;48.178;16.386;2023-07-13T14:21:04;4.50;;;1.92;;
32808;SDS011;19159;48.178;16.386;2023-07-13T14:23:36;8.27;;;1.77;;
32808;SDS011;19159;48.178;16.386;2023-07-13T14:26:02;4.57;;;1.85;;
32808;SDS011;19159;48.178;16.386;2023-07-13T14:28:29;2.70;;;1.50;;
32808;SDS011;19159;48.178;16.386;2023-07-13T14:30:54;3.85;;;1.50;;
32808;SDS011;19159;48.178;16.386;2023-07-13T14:33:20;5.88;;;1.90;;
32808;SDS011;19159;48.178;16.386;2023-07-13T14:35:46;4.88;;;1.60;;
32808;SDS011;19159;48.178;16.386;2023-07-13T14:38:13;3.75;;;1.33;;
32808;SDS011;19159;48.178;16.386;2023-07-13T14:40:43;3.38;;;1.58;;
32808;SDS011;19159;48.178;16.386;2023-07-13T14:43:10;3.80;;;1.60;;
32808;SDS011;19159;48.178;16.386;2023-07-13T14:45:38;4.32;;;1.60;;
32808;SDS011;19159;48.178;16.386;2023-07-13T14:48:19;3.22;;;1.55;;
32808;SDS011;19159;48.178;16.386;2023-07-13T14:50:46;2.80;;;1.30;;
32808;SDS011;19159;48.178;16.386;2023-07-13T14:53:15;4.43;;;1.40;;
32808;SDS011;19159;48.178;16.386;2023-07-13T14:55:41;8.23;;;1.48;;
32808;SDS011;19159;48.178;16.386;2023-07-13T14:58:07;1.60;;;1.10;;
32808;SDS011;19159;48.178;16.386;2023-07-13T15:00:33;2.13;;;1.50;;
32808;SDS011;19159;48.178;16.386;2023-07-13T15:02:59;2.30;;;1.48;;
32808;SDS011;19159;48.178;16.386;2023-07-13T15:05:26;2.35;;;1.40;;
32808;SDS011;19159;48.178;16.386;2023-07-13T15:07:56;2.88;;;1.60;;
32808;SDS011;19159;48.178;16.386;2023-07-13T15:10:25;3.03;;;1.42;;
32808;SDS011;19159;48.178;16.386;2023-07-13T15:13:01;3.60;;;1.67;;
32808;SDS011;19159;48.178;16.386;2023-07-13T15:15:54;4.28;;;1.60;;
32808;SDS011;19159;48.178;16.386;2023-07-13T15:18:20;4.07;;;1.65;;
32808;SDS011;19159;48.178;16.386;2023-07-13T15:20:49;2.97;;;1.50;;
32808;SDS011;19159;48.178;16.386;2023-07-13T15:23:17;4.72;;;1.35;;
32808;SDS011;19159;48.178;16.386;2023-07-13T15:25:44;2.30;;;1.60;;
32808;SDS011;19159;48.178;16.386;2023-07-13T15:28:10;3.05;;;1.48;;
32808;SDS011;19159;48.178;16.386;2023-07-13T15:30:44;2.55;;;1.38;;
32808;SDS011;19159;48.178;16.386;2023-07-13T15:33:12;3.05;;;1.77;;
32808;SDS011;19159;48.178;16.386;2023-07-13T15:35:52;2.38;;;1.70;;